Time;durP1;ratioP1;P1;durP2;ratioP2;P2;SDS_P1;SDS_P2;PMS_P1;PMS_P2;Temp;Humidity;BMP_temperature;BMP_pressure;BME280_temperature;BME280_humidity;BME280_pressure;Samples;Min_cycle;Max_cycle;Signal;HPM_P1;HPM_P2
2022/08/19 00:01:22;;;;;;;4.13;2.28;;;18.60;99.90;;;;;;5095994;28;20024;-79
2022/08/19 00:03:48;;;;;;;6.93;2.72;;;18.60;99.90;;;;;;5077762;28;20109;-79
2022/08/19 00:06:14;;;;;;;12.15;2.60;;;18.60;99.90;;;;;;5078200;28;20056;-79
2022/08/19 00:08:40;;;;;;;8.40;2.53;;;18.60;99.90;;;;;;5077976;28;20025;-79
2022/08/19 00:11:07;;;;;;;6.78;2.63;;;18.50;99.90;;;;;;5095838;28;20024;-79
2022/08/19 00:13:33;;;;;;;6.13;2.38;;;18.50;99.90;;;;;;5096009;28;20028;-79
2022/08/19 00:15:59;;;;;;;6.72;2.30;;;18.40;99.90;;;;;;5096339;28;20032;-79
2022/08/19 00:18:25;;;;;;;8.27;2.40;;;18.30;99.90;;;;;;5077804;28;20024;-79
2022/08/19 00:20:51;;;;;;;8.13;3.53;;;18.30;99.90;;;;;;5077697;28;20051;-79
2022/08/19 00:23:17;;;;;;;4.88;2.65;;;18.30;99.90;;;;;;5095952;28;20453;-79
2022/08/19 00:25:42;;;;;;;9.90;2.45;;;18.20;99.90;;;;;;5095792;28;20036;-79
2022/08/19 00:28:08;;;;;;;9.57;3.00;;;18.20;99.90;;;;;;5096016;28;20024;-79
2022/08/19 00:30:34;;;;;;;4.90;2.40;;;18.30;99.90;;;;;;5096044;28;20103;-79
2022/08/19 00:32:59;;;;;;;8.13;2.97;;;18.30;99.90;;;;;;5077490;28;20488;-79
2022/08/19 00:35:27;;;;;;;5.07;2.67;;;18.30;99.90;;;;;;5077542;28;20527;-78
2022/08/19 00:37:53;;;;;;;6.38;2.40;;;18.30;99.90;;;;;;5077494;28;20036;-80
2022/08/19 00:40:19;;;;;;;5.60;2.25;;;18.30;99.90;;;;;;5095516;28;20475;-79
2022/08/19 00:42:45;;;;;;;5.82;2.33;;;18.30;99.90;;;;;;5095167;28;20032;-79
2022/08/19 00:45:17;;;;;;;8.88;2.80;;;18.20;99.90;;;;;;5095368;28;20465;-79
2022/08/19 00:47:44;;;;;;;8.57;2.22;;;18.10;99.90;;;;;;5094983;28;20484;-78
2022/08/19 00:50:13;;;;;;;6.90;2.78;;;18.10;99.90;;;;;;5077230;28;20028;-78
2022/08/19 00:52:45;;;;;;;10.23;3.13;;;18.10;99.90;;;;;;5095756;28;20032;-80
2022/08/19 00:55:15;;;;;;;5.93;2.40;;;18.10;99.90;;;;;;5077189;28;20491;-78
2022/08/19 00:57:45;;;;;;;5.95;2.63;;;18.10;99.90;;;;;;5095239;28;20035;-79
2022/08/19 01:00:15;;;;;;;7.03;2.58;;;18.10;99.90;;;;;;5095195;28;20028;-78
2022/08/19 01:02:41;;;;;;;6.75;2.95;;;18.10;99.90;;;;;;5094862;28;20054;-80
2022/08/19 01:05:24;;;;;;;7.40;2.40;;;18.00;99.90;;;;;;5094782;28;20032;-78
2022/08/19 01:07:50;;;;;;;5.03;2.47;;;18.00;99.90;;;;;;5094767;28;20496;-78
2022/08/19 01:10:20;;;;;;;6.90;3.00;;;18.00;99.90;;;;;;5094990;28;20046;-79
2022/08/19 01:12:47;;;;;;;6.63;3.25;;;18.00;99.90;;;;;;5095147;28;20024;-79
2022/08/19 01:15:16;;;;;;;15.32;3.88;;;18.00;99.90;;;;;;5094591;28;20028;-79
2022/08/19 01:17:42;;;;;;;5.00;2.25;;;18.00;99.90;;;;;;5094824;28;20099;-78
2022/08/19 01:20:19;;;;;;;6.18;2.50;;;17.90;99.90;;;;;;5094565;28;20338;-78
2022/08/19 01:22:50;;;;;;;9.10;2.78;;;17.90;99.90;;;;;;5077024;28;20036;-79
2022/08/19 01:25:19;;;;;;;11.80;3.40;;;17.90;99.90;;;;;;5077497;28;20060;-79
2022/08/19 01:27:48;;;;;;;7.35;2.70;;;17.90;99.90;;;;;;5095040;28;20099;-79
2022/08/19 01:30:18;;;;;;;10.23;2.50;;;17.90;99.90;;;;;;5076427;28;20465;-78
2022/08/19 01:32:43;;;;;;;9.77;3.53;;;18.00;99.90;;;;;;5094387;28;20061;-78
2022/08/19 01:35:11;;;;;;;7.45;2.90;;;17.90;99.90;;;;;;5094851;28;20035;-79
2022/08/19 01:38:08;;;;;;;4.03;2.55;;;17.90;99.90;;;;;;5094579;28;20028;-79
2022/08/19 01:40:35;;;;;;;13.18;2.95;;;18.00;99.90;;;;;;5077644;28;20032;-79
2022/08/19 01:43:02;;;;;;;17.33;3.78;;;17.90;99.90;;;;;;5076252;28;20031;-79
2022/08/19 01:45:30;;;;;;;6.32;2.65;;;18.00;99.90;;;;;;5094357;28;20362;-78
2022/08/19 01:47:57;;;;;;;6.78;3.13;;;18.00;99.90;;;;;;5094044;28;20536;-79
2022/08/19 01:50:23;;;;;;;7.20;2.60;;;18.00;99.90;;;;;;5094334;28;20095;-79
2022/08/19 01:52:49;;;;;;;17.17;5.00;;;18.00;99.90;;;;;;5093963;28;20366;-78
2022/08/19 01:55:18;;;;;;;8.40;3.25;;;18.00;99.90;;;;;;5076243;28;20020;-79
2022/08/19 01:57:51;;;;;;;11.73;3.05;;;18.00;99.90;;;;;;5093998;28;20051;-79
2022/08/19 02:00:19;;;;;;;12.57;3.30;;;18.00;99.90;;;;;;5094232;28;20036;-78
2022/08/19 02:02:45;;;;;;;5.43;3.10;;;18.00;99.90;;;;;;5094108;28;20431;-79
2022/08/19 02:05:11;;;;;;;8.35;2.42;;;18.10;99.90;;;;;;5094399;28;20024;-79
2022/08/19 02:07:39;;;;;;;10.75;2.42;;;18.10;99.90;;;;;;5075872;28;20023;-79
2022/08/19 02:10:07;;;;;;;8.32;3.10;;;18.20;99.90;;;;;;5094060;28;20080;-79
2022/08/19 02:12:33;;;;;;;12.23;4.00;;;18.20;99.90;;;;;;5094101;28;20050;-79
2022/08/19 02:15:00;;;;;;;6.35;2.60;;;18.20;99.90;;;;;;5093649;28;20024;-79
2022/08/19 02:17:28;;;;;;;5.72;2.42;;;18.20;99.90;;;;;;5094005;28;20506;-78
2022/08/19 02:19:54;;;;;;;6.38;3.10;;;18.20;99.90;;;;;;5076172;28;20054;-78
2022/08/19 02:22:20;;;;;;;4.22;2.15;;;18.20;99.90;;;;;;5075683;28;20457;-78
2022/08/19 02:24:47;;;;;;;7.93;2.85;;;18.20;99.90;;;;;;5075717;28;20047;-79
2022/08/19 02:27:13;;;;;;;14.90;3.00;;;18.20;99.90;;;;;;5109567;28;20036;-78
2022/08/19 02:29:39;;;;;;;9.18;3.00;;;18.20;99.90;;;;;;5075951;28;20024;-78
2022/08/19 02:32:05;;;;;;;12.10;2.90;;;18.20;99.90;;;;;;5093460;28;20354;-78
2022/08/19 02:34:30;;;;;;;4.95;2.75;;;18.20;99.90;;;;;;5075727;28;20062;-78
2022/08/19 02:36:56;;;;;;;13.75;3.38;;;18.20;99.90;;;;;;5093632;28;20105;-79
2022/08/19 02:39:21;;;;;;;7.53;3.08;;;18.20;99.90;;;;;;5075810;28;20024;-78
2022/08/19 02:41:48;;;;;;;7.90;2.97;;;18.20;99.90;;;;;;5075665;28;20028;-78
2022/08/19 02:44:14;;;;;;;5.93;3.00;;;18.30;99.90;;;;;;5093616;28;20449;-78
2022/08/19 02:46:39;;;;;;;10.82;3.17;;;18.40;99.90;;;;;;5093884;28;20111;-79
2022/08/19 02:49:06;;;;;;;4.18;2.95;;;18.40;99.90;;;;;;5093652;28;20073;-78
2022/08/19 02:51:39;;;;;;;9.68;3.30;;;18.40;99.90;;;;;;5093704;28;20024;-78
2022/08/19 02:54:08;;;;;;;8.90;3.28;;;18.50;99.90;;;;;;5093963;28;20032;-78
2022/08/19 02:56:37;;;;;;;7.33;3.30;;;18.50;99.90;;;;;;5075424;28;20031;-79
2022/08/19 02:59:10;;;;;;;9.45;3.22;;;18.50;99.90;;;;;;5093575;28;20125;-78
2022/08/19 03:01:39;;;;;;;7.60;3.10;;;18.50;99.90;;;;;;5075382;28;20033;-78
2022/08/19 03:04:07;;;;;;;9.07;3.38;;;18.50;99.90;;;;;;5093490;28;20404;-79
2022/08/19 03:06:37;;;;;;;5.80;2.90;;;18.50;99.90;;;;;;5075347;28;20063;-78
2022/08/19 03:09:03;;;;;;;9.35;3.22;;;18.50;99.90;;;;;;5093884;28;20047;-79
2022/08/19 03:11:30;;;;;;;9.50;3.20;;;18.50;99.90;;;;;;5097316;28;20473;-78
2022/08/19 03:13:56;;;;;;;12.20;3.63;;;18.50;99.90;;;;;;5097222;28;20126;-78
2022/08/19 03:16:25;;;;;;;12.40;3.40;;;18.50;99.90;;;;;;5097003;28;20496;-78
2022/08/19 03:18:52;;;;;;;10.75;3.22;;;18.50;99.90;;;;;;5097189;28;20063;-78
2022/08/19 03:21:24;;;;;;;9.15;3.20;;;18.50;99.90;;;;;;5078883;28;20074;-78
2022/08/19 03:23:54;;;;;;;6.18;2.97;;;18.50;99.90;;;;;;5079120;28;20080;-77
2022/08/19 03:26:19;;;;;;;;;;;18.50;99.90;;;;;;5097492;28;20029;-77
2022/08/19 03:28:49;;;;;;;11.95;3.30;;;18.50;99.90;;;;;;5096777;28;19941;-77
2022/08/19 03:31:17;;;;;;;9.60;2.85;;;18.60;99.90;;;;;;5096847;28;20520;-77
2022/08/19 03:33:44;;;;;;;9.10;4.80;;;18.60;99.90;;;;;;5096847;28;20047;-77
2022/08/19 03:36:15;;;;;;;10.48;3.50;;;18.60;99.90;;;;;;5096723;28;20477;-77
2022/08/19 03:38:50;;;;;;;8.15;4.00;;;18.70;99.90;;;;;;5078565;28;20476;-78
2022/08/19 03:41:20;;;;;;;7.60;3.85;;;18.80;99.90;;;;;;5096860;28;20077;-78
2022/08/19 03:43:47;;;;;;;6.35;3.50;;;18.80;99.90;;;;;;5078844;28;20038;-77
2022/08/19 03:46:20;;;;;;;7.53;3.45;;;18.80;99.90;;;;;;5096721;28;20104;-78
2022/08/19 03:48:47;;;;;;;10.45;3.95;;;18.70;99.90;;;;;;5096724;28;20028;-77
2022/08/19 03:51:19;;;;;;;7.18;3.97;;;18.70;99.90;;;;;;5096280;28;20393;-77
2022/08/19 03:53:46;;;;;;;15.38;4.95;;;18.70;99.90;;;;;;5096426;28;20114;-78
2022/08/19 03:56:13;;;;;;;7.97;4.10;;;18.70;99.90;;;;;;5078434;28;20028;-78
2022/08/19 03:58:40;;;;;;;7.07;4.13;;;18.70;99.90;;;;;;5096089;28;20028;-78
2022/08/19 04:01:11;;;;;;;10.60;4.63;;;18.70;99.90;;;;;;5096165;28;20035;-78
2022/08/19 04:03:38;;;;;;;8.77;4.22;;;18.70;99.90;;;;;;5095968;28;20240;-78
2022/08/19 04:06:16;;;;;;;7.90;3.80;;;18.80;99.90;;;;;;5078144;28;20036;-78
2022/08/19 04:08:43;;;;;;;5.55;3.05;;;18.80;99.90;;;;;;5095942;28;20483;-78
2022/08/19 04:11:10;;;;;;;6.18;3.45;;;18.80;99.90;;;;;;5096484;28;20059;-78
2022/08/19 04:13:36;;;;;;;7.97;3.92;;;18.90;99.90;;;;;;5078020;28;20472;-79
2022/08/19 04:16:05;;;;;;;6.63;3.33;;;18.90;99.90;;;;;;5078080;28;20035;-79
2022/08/19 04:18:32;;;;;;;5.40;4.03;;;19.00;99.90;;;;;;5096307;28;20058;-78
2022/08/19 04:20:59;;;;;;;8.88;4.00;;;19.00;99.90;;;;;;5095921;28;20032;-79
2022/08/19 04:23:24;;;;;;;10.82;4.28;;;19.00;99.90;;;;;;5077363;28;20127;-78
2022/08/19 04:25:50;;;;;;;9.98;4.68;;;19.10;99.90;;;;;;5095856;28;20107;-79
2022/08/19 04:28:16;;;;;;;7.95;3.78;;;19.20;99.90;;;;;;5095855;28;20028;-78
2022/08/19 04:30:45;;;;;;;6.90;4.03;;;19.20;99.90;;;;;;5078489;28;20045;-79
2022/08/19 04:33:12;;;;;;;8.90;4.07;;;19.30;99.90;;;;;;5095467;28;20046;-79
2022/08/19 04:35:41;;;;;;;13.40;4.72;;;19.40;99.90;;;;;;5077520;28;20024;-78
2022/08/19 04:38:08;;;;;;;;;;;19.50;99.90;;;;;;5096049;28;20020;-78
2022/08/19 04:43:18;;;;;;;6.07;4.20;;;19.60;99.90;;;;;;5095649;28;20506;-79
2022/08/19 04:45:45;;;;;;;10.80;3.90;;;19.70;99.90;;;;;;5095277;28;20028;-78
2022/08/19 04:48:12;;;;;;;10.50;4.32;;;19.80;99.90;;;;;;5095387;28;20028;-77
2022/08/19 04:50:42;;;;;;;8.32;4.05;;;19.80;99.90;;;;;;5095854;28;20060;-78
2022/08/19 04:53:08;;;;;;;8.38;4.07;;;19.90;99.90;;;;;;5095215;28;20534;-78
2022/08/19 04:55:35;;;;;;;13.02;4.15;;;20.00;99.90;;;;;;5094817;28;20036;-79
2022/08/19 04:58:02;;;;;;;10.82;4.25;;;20.00;99.90;;;;;;5095312;28;20024;-79
2022/08/19 05:00:27;;;;;;;10.00;4.97;;;20.10;99.90;;;;;;5095168;28;20025;-79
2022/08/19 05:02:53;;;;;;;8.27;4.18;;;20.20;99.90;;;;;;5110657;28;20059;-78
2022/08/19 05:05:19;;;;;;;11.10;4.65;;;20.20;99.90;;;;;;5095917;28;20122;-78
2022/08/19 05:07:45;;;;;;;11.10;4.55;;;20.20;99.90;;;;;;5110845;28;20035;-78
2022/08/19 05:10:11;;;;;;;10.13;4.72;;;20.30;99.90;;;;;;5076804;28;20024;-78
2022/08/19 05:12:37;;;;;;;7.85;4.13;;;20.30;99.90;;;;;;5095243;28;20411;-78
2022/08/19 05:15:05;;;;;;;9.63;3.88;;;20.40;99.90;;;;;;5095003;28;20075;-78
2022/08/19 05:17:31;;;;;;;10.00;4.88;;;20.40;99.90;;;;;;5095373;28;20031;-78
2022/08/19 05:22:44;;;;;;;12.80;4.78;;;20.60;99.90;;;;;;5094575;28;20038;-78
2022/08/19 05:25:12;;;;;;;14.45;5.10;;;20.60;99.90;;;;;;5094826;28;20032;-78
2022/08/19 05:27:38;;;;;;;12.30;6.93;;;20.60;99.90;;;;;;5094948;28;20024;-79
2022/08/19 05:30:05;;;;;;;11.95;5.55;;;20.70;99.90;;;;;;5094666;28;20040;-78
2022/08/19 05:32:30;;;;;;;13.88;7.43;;;20.80;99.90;;;;;;5093781;28;20024;-77
2022/08/19 05:34:56;;;;;;;10.20;7.10;;;20.90;99.90;;;;;;5094559;28;20027;-78
2022/08/19 05:37:23;;;;;;;10.05;6.95;;;21.00;99.90;;;;;;5094147;28;20024;-78
2022/08/19 05:39:49;;;;;;;11.82;7.32;;;21.10;99.90;;;;;;5076290;28;20120;-78
2022/08/19 05:42:15;;;;;;;10.57;7.40;;;21.20;99.90;;;;;;5076250;28;20024;-77
2022/08/19 05:44:47;;;;;;;14.68;8.27;;;21.30;99.90;;;;;;5094447;28;20025;-78
2022/08/19 05:47:14;;;;;;;11.77;9.00;;;21.40;99.90;;;;;;5077086;28;20393;-78
2022/08/19 05:49:41;;;;;;;13.15;8.27;;;21.50;99.90;;;;;;5076191;28;20020;-78
2022/08/19 05:52:10;;;;;;;13.30;7.68;;;21.60;99.90;;;;;;5094648;28;20072;-77
2022/08/19 05:54:40;;;;;;;12.27;8.13;;;21.70;99.90;;;;;;5094463;28;20141;-59
2022/08/19 05:57:06;;;;;;;11.70;7.70;;;22.10;99.90;;;;;;5094880;28;20097;-59
2022/08/19 05:59:32;;;;;;;12.80;7.68;;;22.30;99.90;;;;;;5094779;28;20035;-59
2022/08/19 06:02:00;;;;;;;11.27;7.68;;;22.50;99.90;;;;;;5078212;28;20028;-59
2022/08/19 06:04:26;;;;;;;11.13;8.82;;;22.70;99.90;;;;;;5097013;28;20070;-59
2022/08/19 06:06:53;;;;;;;11.73;7.82;;;22.80;99.90;;;;;;5096062;28;20031;-62
2022/08/19 06:09:20;;;;;;;9.32;7.75;;;22.90;99.90;;;;;;5077934;28;20107;-62
2022/08/19 06:11:49;;;;;;;11.60;8.38;;;22.80;99.90;;;;;;5095237;28;20476;-63
2022/08/19 06:14:16;;;;;;;;;;;22.70;99.90;;;;;;5076365;28;20111;-62
2022/08/19 06:16:43;;;;;;;10.98;7.80;;;22.80;99.90;;;;;;5075874;28;20432;-58
2022/08/19 06:19:15;;;;;;;11.40;8.63;;;22.80;99.90;;;;;;5094134;28;20056;-57
2022/08/19 06:21:44;;;;;;;11.85;8.18;;;22.90;99.90;;;;;;5093582;28;20031;-58
2022/08/19 06:24:11;;;;;;;;;;;22.90;99.90;;;;;;5093982;28;20464;-58
2022/08/19 06:26:39;;;;;;;12.27;6.65;;;22.90;99.90;;;;;;5093738;28;19961;-58
2022/08/19 06:29:07;;;;;;;9.63;7.28;;;23.00;99.90;;;;;;5075919;28;20024;-58
2022/08/19 06:31:34;;;;;;;8.05;6.90;;;23.10;99.90;;;;;;5094171;28;20043;-73
2022/08/19 06:34:04;;;;;;;10.40;7.18;;;23.10;99.90;;;;;;5072073;28;20056;-74
2022/08/19 06:36:36;;;;;;;11.13;7.35;;;23.00;99.90;;;;;;5073522;28;20028;-74
2022/08/19 06:39:08;;;;;;;10.57;8.10;;;22.90;99.90;;;;;;5074024;28;20104;-75
2022/08/19 06:41:36;;;;;;;10.20;6.95;;;22.70;99.90;;;;;;5073920;28;20033;-76
2022/08/19 06:44:03;;;;;;;12.55;7.95;;;22.70;99.90;;;;;;5073805;28;20020;-75
2022/08/19 06:46:28;;;;;;;11.43;7.20;;;22.80;99.90;;;;;;5075763;28;20028;-75
2022/08/19 06:48:54;;;;;;;9.80;7.28;;;22.80;99.90;;;;;;5076591;28;20112;-76
2022/08/19 06:51:21;;;;;;;16.75;9.00;;;22.90;99.90;;;;;;5076070;28;20025;-64
2022/08/19 06:53:48;;;;;;;12.30;8.05;;;23.10;99.90;;;;;;5076014;28;20405;-65
2022/08/19 06:56:16;;;;;;;11.50;7.03;;;23.30;99.90;;;;;;5077232;28;20024;-65
2022/08/19 06:58:42;;;;;;;11.15;6.03;;;23.50;99.90;;;;;;5076232;28;20025;-65
2022/08/19 07:01:08;;;;;;;8.63;6.88;;;23.90;99.90;;;;;;5063367;28;20029;-65
2022/08/19 07:03:35;;;;;;;12.95;6.50;;;24.10;99.90;;;;;;5056976;28;20029;-66
2022/08/19 07:06:06;;;;;;;12.20;7.47;;;24.30;99.90;;;;;;5056430;28;20040;-66
2022/08/19 07:08:33;;;;;;;9.95;6.22;;;24.60;99.90;;;;;;5057038;28;20025;-66
2022/08/19 07:10:59;;;;;;;6.85;6.15;;;24.80;99.90;;;;;;5055788;28;20075;-66
2022/08/19 07:13:25;;;;;;;6.22;5.55;;;24.90;99.90;;;;;;5057210;28;20029;-66
2022/08/19 07:15:50;;;;;;;10.05;6.50;;;24.90;99.90;;;;;;5055415;28;20462;-63
2022/08/19 07:18:21;;;;;;;10.63;5.85;;;25.00;99.90;;;;;;5055638;28;20029;-64
2022/08/19 07:20:47;;;;;;;8.30;6.07;;;25.00;99.90;;;;;;5055423;28;20021;-63
2022/08/19 07:23:13;;;;;;;7.00;5.55;;;25.00;99.90;;;;;;5056647;28;20036;-63
2022/08/19 07:25:40;;;;;;;7.22;5.55;;;25.00;99.90;;;;;;5054970;28;20029;-64
2022/08/19 07:28:07;;;;;;;9.20;5.65;;;24.80;99.90;;;;;;5065888;28;20025;-65
2022/08/19 07:30:35;;;;;;;10.02;5.03;;;24.80;99.90;;;;;;5073037;28;20021;-63
2022/08/19 07:33:01;;;;;;;7.88;5.60;;;24.80;99.90;;;;;;5081009;28;20048;-66
2022/08/19 07:35:28;;;;;;;6.30;5.47;;;24.80;99.90;;;;;;5078478;28;20032;-66
2022/08/19 07:37:53;;;;;;;7.50;5.40;;;24.90;99.90;;;;;;5078419;28;20039;-63
2022/08/19 07:40:19;;;;;;;6.22;4.53;;;25.00;99.90;;;;;;5078487;28;20024;-63
2022/08/19 07:42:45;;;;;;;8.00;5.20;;;25.10;99.90;;;;;;5096302;28;20115;-63
2022/08/19 07:45:11;;;;;;;9.60;4.85;;;25.30;99.90;;;;;;5078525;28;20032;-63
2022/08/19 07:47:36;;;;;;;5.07;4.57;;;25.60;99.90;;;;;;5096899;28;20123;-65
2022/08/19 07:50:07;;;;;;;7.25;5.10;;;25.60;99.90;;;;;;5096356;28;20032;-64
2022/08/19 07:52:32;;;;;;;7.65;5.40;;;25.60;99.90;;;;;;5078602;28;20302;-64
2022/08/19 07:54:59;;;;;;;6.35;4.75;;;25.70;99.90;;;;;;5095824;28;20028;-64
2022/08/19 07:57:25;;;;;;;9.57;4.90;;;25.90;99.90;;;;;;5096083;28;20023;-63
2022/08/19 07:59:50;;;;;;;6.50;4.50;;;26.30;99.90;;;;;;5096148;28;20028;-63
2022/08/19 08:02:16;;;;;;;6.35;4.63;;;26.70;99.90;;;;;;5096448;28;20035;-63
2022/08/19 08:10:10;;;;;;;5.00;4.50;;;27.80;99.90;;;;;;5095678;28;20442;-66
2022/08/19 08:12:42;;;;;;;6.28;4.60;;;28.10;99.50;;;;;;5096097;28;20028;-65
2022/08/19 08:15:15;;;;;;;6.53;4.30;;;28.30;99.00;;;;;;5096341;28;20059;-65
2022/08/19 08:17:42;;;;;;;5.97;4.30;;;28.60;98.20;;;;;;5078347;28;20078;-64
2022/08/19 08:20:08;;;;;;;9.65;5.95;;;28.70;97.50;;;;;;5095833;28;20080;-64
2022/08/19 08:25:22;;;;;;;9.77;4.00;;;29.20;96.80;;;;;;5096154;28;20082;-63
2022/08/19 08:27:49;;;;;;;5.32;4.10;;;29.60;95.70;;;;;;5077544;28;20381;-64
2022/08/19 08:30:26;;;;;;;9.77;4.32;;;29.80;94.70;;;;;;5078164;28;20084;-68
2022/08/19 08:32:52;;;;;;;4.88;3.95;;;29.60;94.20;;;;;;5095757;28;20127;-64
2022/08/19 08:35:21;;;;;;;4.65;4.20;;;29.50;94.20;;;;;;5095635;28;20105;-70
2022/08/19 08:37:49;;;;;;;5.43;4.45;;;29.20;94.10;;;;;;5095556;28;20122;-70
2022/08/19 08:40:39;;;;;;;4.68;3.88;;;28.90;94.60;;;;;;5077425;28;20486;-69
2022/08/19 08:43:27;;;;;;;5.28;4.47;;;28.80;94.50;;;;;;5095198;28;20039;-70
2022/08/19 08:46:04;;;;;;;4.57;3.88;;;28.80;94.50;;;;;;5077381;28;20024;-70
2022/08/19 08:48:54;;;;;;;4.57;3.97;;;28.80;94.00;;;;;;5095163;28;20465;-70
2022/08/19 08:51:32;;;;;;;4.38;3.97;;;28.90;93.90;;;;;;5077182;28;20028;-70
2022/08/19 08:53:58;;;;;;;;;;;29.20;93.30;;;;;;5095730;28;20115;-70
2022/08/19 08:56:25;;;;;;;6.53;3.92;;;29.30;93.20;;;;;;5077063;28;20327;-70
2022/08/19 08:58:59;;;;;;;5.10;4.35;;;29.60;92.60;;;;;;5094859;28;20072;-71
2022/08/19 09:01:25;;;;;;;7.88;4.13;;;30.00;91.10;;;;;;5076894;28;20043;-70
2022/08/19 09:03:51;;;;;;;6.50;4.50;;;30.50;90.00;;;;;;5094919;28;20028;-70
2022/08/19 09:06:33;;;;;;;6.00;4.47;;;31.00;87.60;;;;;;5094835;28;20028;-71
2022/08/19 09:09:17;;;;;;;4.03;3.72;;;31.00;86.90;;;;;;5076502;28;20120;-71
2022/08/19 09:11:58;;;;;;;4.28;3.97;;;31.40;85.80;;;;;;5077075;28;20443;-71
2022/08/19 09:14:26;;;;;;;4.85;4.35;;;31.70;83.40;;;;;;5094702;28;20054;-74
2022/08/19 09:16:52;;;;;;;4.35;3.95;;;32.00;81.00;;;;;;5094509;28;20024;-71
2022/08/19 09:19:18;;;;;;;4.45;4.05;;;32.20;79.00;;;;;;5076533;28;20127;-71
2022/08/19 09:21:45;;;;;;;4.93;3.95;;;32.30;76.70;;;;;;5076448;28;20028;-71
2022/08/19 09:24:11;;;;;;;4.50;4.10;;;32.50;75.70;;;;;;5094566;28;20472;-71
2022/08/19 09:26:36;;;;;;;4.22;3.80;;;32.90;74.80;;;;;;5076373;28;20028;-74
2022/08/19 09:29:04;;;;;;;4.40;3.95;;;33.20;72.70;;;;;;5076398;28;20024;-71
2022/08/19 09:31:32;;;;;;;5.72;3.85;;;33.10;71.80;;;;;;5076401;28;20114;-73
2022/08/19 09:33:59;;;;;;;5.35;4.15;;;33.40;71.20;;;;;;5075938;28;20047;-71
2022/08/19 09:36:28;;;;;;;4.07;3.78;;;33.60;70.00;;;;;;5075954;28;20024;-73
2022/08/19 09:38:55;;;;;;;4.53;3.20;;;33.60;69.40;;;;;;5094575;28;20052;-74
2022/08/19 09:41:23;;;;;;;4.82;3.63;;;33.80;68.00;;;;;;5076187;28;20024;-71
2022/08/19 09:43:51;;;;;;;4.78;3.60;;;33.70;67.90;;;;;;5094003;28;20031;-71
2022/08/19 09:46:20;;;;;;;6.55;3.88;;;33.80;67.20;;;;;;5076149;28;20036;-71
2022/08/19 09:48:48;;;;;;;6.78;3.92;;;33.90;66.40;;;;;;5076050;28;20035;-71
2022/08/19 09:51:17;;;;;;;3.15;2.92;;;34.00;65.30;;;;;;5094178;28;20119;-72
2022/08/19 09:53:47;;;;;;;6.22;3.78;;;34.10;64.80;;;;;;5094507;28;20096;-71
2022/08/19 09:56:13;;;;;;;20.63;3.97;;;34.40;64.00;;;;;;5076327;28;20025;-73
2022/08/19 09:58:40;;;;;;;5.00;3.58;;;35.00;60.70;;;;;;5093758;28;20027;-74
2022/08/19 10:01:07;;;;;;;6.03;3.45;;;35.30;60.90;;;;;;5093993;28;20020;-74
2022/08/19 10:03:35;;;;;;;6.20;3.80;;;35.00;60.20;;;;;;5076079;28;20402;-74
2022/08/19 10:06:03;;;;;;;4.53;3.47;;;33.90;61.70;;;;;;5094227;28;20484;-71
2022/08/19 10:08:33;;;;;;;7.03;3.50;;;33.00;61.70;;;;;;5075472;28;20028;-71
2022/08/19 10:10:59;;;;;;;5.00;3.60;;;32.60;63.90;;;;;;5093862;28;20113;-71
2022/08/19 10:13:28;;;;;;;6.15;3.55;;;32.70;63.40;;;;;;5093871;28;20563;-70
2022/08/19 10:15:56;;;;;;;4.47;3.55;;;32.40;64.20;;;;;;5093486;28;20028;-71
2022/08/19 10:18:25;;;;;;;7.95;3.60;;;32.00;65.50;;;;;;5093619;28;20052;-71
2022/08/19 10:20:54;;;;;;;8.95;3.40;;;31.60;66.20;;;;;;5093713;28;20036;-71
2022/08/19 10:23:21;;;;;;;7.68;3.13;;;31.50;67.20;;;;;;5093761;28;20144;-71
2022/08/19 10:25:47;;;;;;;4.15;3.70;;;31.40;68.10;;;;;;5093906;28;20024;-71
2022/08/19 10:28:13;;;;;;;9.32;4.35;;;31.10;69.70;;;;;;5093677;28;20016;-70
2022/08/19 10:30:39;;;;;;;11.68;4.05;;;31.10;70.70;;;;;;5075741;28;20119;-71
2022/08/19 10:33:05;;;;;;;18.67;3.85;;;30.80;71.40;;;;;;5093437;28;20048;-71
2022/08/19 10:35:31;;;;;;;5.93;3.50;;;30.70;71.80;;;;;;5075433;28;20024;-71
2022/08/19 10:37:58;;;;;;;7.68;3.50;;;31.10;71.80;;;;;;5075286;28;20028;-71
2022/08/19 10:40:26;;;;;;;8.27;3.65;;;31.60;69.20;;;;;;5093038;28;20418;-71
2022/08/19 10:42:52;;;;;;;6.72;3.20;;;31.70;67.00;;;;;;5093310;28;20024;-71
2022/08/19 10:45:18;;;;;;;10.32;3.70;;;31.50;68.00;;;;;;5093465;28;20024;-70
2022/08/19 10:47:43;;;;;;;7.90;3.20;;;31.20;68.00;;;;;;5075336;28;20077;-71
2022/08/19 10:52:54;;;;;;;4.75;3.20;;;30.60;69.10;;;;;;5093264;28;20042;-73
2022/08/19 10:58:25;;;;;;;9.95;3.95;;;29.90;71.60;;;;;;5046110;28;20036;-70
2022/08/19 11:00:53;;;;;;;7.80;4.03;;;29.70;74.60;;;;;;5093618;28;20048;-70
2022/08/19 11:03:19;;;;;;;7.80;3.50;;;29.20;78.50;;;;;;5075179;28;20111;-70
2022/08/19 11:05:44;;;;;;;7.40;3.97;;;28.80;80.20;;;;;;5093883;28;20111;-70
2022/08/19 11:08:11;;;;;;;9.38;3.70;;;28.40;82.40;;;;;;5093432;28;20089;-70
2022/08/19 11:10:41;;;;;;;8.20;4.03;;;28.30;84.00;;;;;;5075106;28;20024;-70
2022/08/19 11:13:06;;;;;;;8.27;3.50;;;28.60;86.50;;;;;;5093407;28;20028;-70
2022/08/19 11:15:33;;;;;;;9.00;3.63;;;28.60;86.10;;;;;;5093119;28;20026;-70
2022/08/19 11:17:58;;;;;;;6.47;3.50;;;28.70;86.30;;;;;;5093191;28;20031;-70
2022/08/19 11:20:24;;;;;;;9.90;3.83;;;28.60;86.30;;;;;;5093118;28;20028;-70
2022/08/19 11:22:53;;;;;;;8.75;3.28;;;28.50;85.40;;;;;;5093274;28;20032;-69
2022/08/19 11:25:19;;;;;;;11.55;3.65;;;28.50;86.40;;;;;;5093291;28;20028;-69
2022/08/19 11:27:45;;;;;;;11.77;4.13;;;28.30;87.80;;;;;;5075088;28;20060;-69
2022/08/19 11:30:12;;;;;;;10.25;4.45;;;28.10;87.60;;;;;;5093606;28;20077;-69
2022/08/19 11:32:41;;;;;;;9.02;3.75;;;27.80;88.80;;;;;;5096836;28;20036;-69
2022/08/19 11:35:07;;;;;;;11.07;3.65;;;27.60;89.00;;;;;;5096468;28;20107;-69
2022/08/19 11:37:36;;;;;;;10.63;3.00;;;27.60;90.40;;;;;;5096412;28;20403;-70
2022/08/19 11:40:03;;;;;;;11.77;4.47;;;27.70;90.40;;;;;;5096717;28;20110;-70
2022/08/19 11:45:13;;;;;;;10.02;3.53;;;28.20;89.90;;;;;;5096747;28;20039;-72
2022/08/19 11:47:39;;;;;;;11.27;3.33;;;28.30;89.00;;;;;;5096144;28;20154;-72
2022/08/19 11:50:05;;;;;;;8.40;3.38;;;28.30;88.00;;;;;;5096482;28;20453;-73
2022/08/19 11:52:31;;;;;;;9.50;2.92;;;28.30;87.60;;;;;;5078465;28;20456;-72
2022/08/19 11:54:57;;;;;;;10.00;3.50;;;29.10;86.40;;;;;;5096395;28;20061;-72
2022/08/19 11:57:22;;;;;;;12.18;3.50;;;30.30;84.20;;;;;;5097148;28;20021;-72
2022/08/19 11:59:50;;;;;;;12.40;3.22;;;31.40;78.50;;;;;;5096052;28;20024;-73
2022/08/19 12:02:15;;;;;;;8.02;3.63;;;31.70;73.30;;;;;;5096174;28;20035;-72
2022/08/19 12:04:41;;;;;;;13.05;3.92;;;32.30;70.80;;;;;;5096106;28;20047;-72
2022/08/19 12:07:07;;;;;;;11.05;3.25;;;31.80;70.00;;;;;;5096182;28;20077;-71
2022/08/19 12:09:34;;;;;;;8.15;2.97;;;31.30;70.00;;;;;;5096159;28;20020;-70
2022/08/19 12:12:01;;;;;;;11.23;3.55;;;31.40;70.80;;;;;;5096287;28;20016;-71
2022/08/19 12:14:29;;;;;;;10.65;3.53;;;31.70;69.10;;;;;;5078728;28;20032;-71
2022/08/19 12:16:55;;;;;;;12.25;2.95;;;31.70;67.50;;;;;;5095660;28;20491;-73
2022/08/19 12:19:21;;;;;;;11.05;3.30;;;31.70;68.80;;;;;;5096140;28;20067;-73
2022/08/19 12:21:47;;;;;;;11.25;2.75;;;31.90;66.10;;;;;;5077754;28;20506;-73
2022/08/19 12:24:13;;;;;;;8.77;2.58;;;32.00;64.80;;;;;;5077515;28;20039;-71
2022/08/19 12:26:39;;;;;;;12.48;3.10;;;32.80;64.10;;;;;;5096183;28;20136;-73
2022/08/19 12:29:05;;;;;;;15.32;3.55;;;32.90;62.20;;;;;;5077706;28;20082;-73
2022/08/19 12:31:31;;;;;;;13.23;3.25;;;32.20;62.60;;;;;;5077926;28;20439;-71
2022/08/19 12:33:57;;;;;;;14.38;3.08;;;31.70;64.10;;;;;;5095144;28;20424;-71
2022/08/19 12:36:23;;;;;;;12.13;3.10;;;31.70;64.00;;;;;;5095892;28;20038;-71
2022/08/19 12:38:50;;;;;;;16.90;4.30;;;31.70;63.40;;;;;;5077455;28;20480;-73
2022/08/19 12:41:18;;;;;;;13.48;3.28;;;30.70;64.70;;;;;;5095675;28;20024;-74
2022/08/19 12:43:44;;;;;;;20.13;3.60;;;30.50;65.60;;;;;;5095914;28;20152;-73
2022/08/19 12:46:11;;;;;;;17.70;3.70;;;29.90;67.00;;;;;;5095920;28;20035;-71
2022/08/19 12:48:39;;;;;;;16.75;3.40;;;29.40;68.00;;;;;;5095718;28;20028;-71
2022/08/19 12:51:11;;;;;;;12.80;3.07;;;29.10;69.00;;;;;;5096376;28;20020;-71
2022/08/19 12:53:38;;;;;;;14.45;3.53;;;28.80;70.00;;;;;;5095368;28;20258;-70
2022/08/19 12:56:04;;;;;;;15.50;3.95;;;28.70;70.80;;;;;;5095452;28;20078;-70
2022/08/19 12:58:30;;;;;;;15.20;3.00;;;28.70;71.90;;;;;;5095718;28;20362;-70
2022/08/19 13:00:56;;;;;;;13.65;3.83;;;28.70;71.80;;;;;;5095277;28;20104;-71
2022/08/19 13:03:27;;;;;;;13.15;2.80;;;28.60;72.20;;;;;;5095139;28;20036;-70
2022/08/19 13:05:52;;;;;;;15.00;3.67;;;28.40;72.90;;;;;;5095188;28;20020;-70
2022/08/19 13:08:18;;;;;;;14.70;3.47;;;28.30;73.90;;;;;;5094964;28;20024;-71
2022/08/19 13:10:44;;;;;;;13.35;3.47;;;28.20;74.50;;;;;;5095129;28;20072;-71